createdAt,value
2019-06-10T00:00:46.109Z,18.50
2019-06-10T00:03:16.655Z,18.50
2019-06-10T00:05:46.958Z,18.50
2019-06-10T00:08:17.213Z,18.50
2019-06-10T00:10:47.466Z,18.50
2019-06-10T00:13:17.731Z,18.40
2019-06-10T00:15:48.094Z,18.50
2019-06-10T00:18:35.376Z,18.50
2019-06-10T00:20:51.438Z,18.50
2019-06-10T00:23:21.735Z,18.50
2019-06-10T00:25:51.985Z,18.50
2019-06-10T00:28:22.252Z,18.50
2019-06-10T00:30:52.504Z,18.40
2019-06-10T00:33:23.161Z,18.40
2019-06-10T00:35:53.412Z,18.40
2019-06-10T00:38:23.691Z,18.40
2019-06-10T00:40:53.944Z,18.40
2019-06-10T00:43:24.193Z,18.40
2019-06-10T00:45:54.485Z,18.40
2019-06-10T00:48:28.943Z,18.40
2019-06-10T00:50:56.702Z,18.30
2019-06-10T00:53:26.988Z,18.30
2019-06-10T00:55:57.478Z,18.30
2019-06-10T00:58:27.737Z,18.20
2019-06-10T01:01:00.675Z,18.10
2019-06-10T01:03:31.354Z,18.00
2019-06-10T01:06:03.099Z,18.00
2019-06-10T01:08:33.749Z,17.90
2019-06-10T01:11:09.757Z,17.80
2019-06-10T01:13:36.034Z,17.80
2019-06-10T01:16:07.393Z,17.70
2019-06-10T01:18:38.599Z,17.70
2019-06-10T01:21:12.203Z,17.60
2019-06-10T01:23:41.720Z,17.60
2019-06-10T01:26:14.820Z,17.50
2019-06-10T01:28:43.959Z,17.50
2019-06-10T01:31:20.485Z,17.50
2019-06-10T01:33:46.184Z,17.60
2019-06-10T01:36:16.585Z,17.60
2019-06-10T01:38:46.892Z,17.60
2019-06-10T01:41:17.140Z,17.60
2019-06-10T01:43:47.428Z,17.60
2019-06-10T01:46:17.672Z,17.70
2019-06-10T01:48:48.557Z,17.60
2019-06-10T01:51:21.243Z,17.60
2019-06-10T01:53:51.429Z,17.60
2019-06-10T01:56:21.972Z,17.60
2019-06-10T01:58:52.255Z,17.60
2019-06-10T02:01:24.252Z,17.60
2019-06-10T02:03:54.507Z,17.60
2019-06-10T02:06:25.839Z,17.60
2019-06-10T02:09:05.655Z,17.50
2019-06-10T02:11:37.040Z,17.60
2019-06-10T02:14:07.558Z,17.60
2019-06-10T02:16:37.827Z,17.60
2019-06-10T02:19:08.079Z,17.50
2019-06-10T02:21:38.441Z,17.50
2019-06-10T02:24:08.772Z,17.60
2019-06-10T02:26:41.091Z,17.60
2019-06-10T02:29:12.812Z,17.60
2019-06-10T02:31:43.552Z,17.60
2019-06-10T02:34:21.783Z,17.60
2019-06-10T02:36:49.012Z,17.60
2019-06-10T02:39:24.624Z,17.60
2019-06-10T02:41:53.685Z,17.60
2019-06-10T02:44:32.588Z,17.60
2019-06-10T02:46:56.031Z,17.60
2019-06-10T02:49:46.245Z,17.60
2019-06-10T02:52:03.461Z,17.60
2019-06-10T02:54:35.805Z,17.60
2019-06-10T02:57:05.371Z,17.70
2019-06-10T02:59:36.514Z,17.60
2019-06-10T03:02:07.047Z,17.60
2019-06-10T03:04:37.879Z,17.60
2019-06-10T03:07:08.325Z,17.70
2019-06-10T03:09:38.869Z,17.70
2019-06-10T03:12:09.406Z,17.70
2019-06-10T03:14:42.146Z,17.70
2019-06-10T03:17:16.388Z,17.60
2019-06-10T03:19:50.380Z,17.50
2019-06-10T03:22:18.600Z,17.30
2019-06-10T03:24:49.614Z,16.90
2019-06-10T03:27:21.083Z,16.70
2019-06-10T03:29:52.666Z,16.40
2019-06-10T03:32:29.638Z,16.10
2019-06-10T03:34:55.286Z,15.80
2019-06-10T03:37:27.401Z,15.60
2019-06-10T03:39:57.733Z,15.40
2019-06-10T03:42:28.295Z,15.40
2019-06-10T03:44:58.677Z,15.30
2019-06-10T03:47:28.964Z,15.30
2019-06-10T03:49:59.240Z,15.30
2019-06-10T03:52:29.539Z,15.30
2019-06-10T03:54:59.788Z,15.20
2019-06-10T03:57:30.064Z,15.20
2019-06-10T04:00:03.534Z,15.20
2019-06-10T04:02:32.656Z,15.20
2019-06-10T04:05:03.036Z,15.20
2019-06-10T04:07:34.242Z,15.20
2019-06-10T04:10:06.370Z,15.20
2019-06-10T04:12:36.667Z,15.20
2019-06-10T04:15:08.562Z,15.20
2019-06-10T04:17:38.816Z,15.20
2019-06-10T04:20:12.395Z,15.10
2019-06-10T04:22:41.072Z,15.10
2019-06-10T04:25:12.116Z,15.20
2019-06-10T04:27:42.667Z,15.30
2019-06-10T04:30:16.323Z,15.30
2019-06-10T04:32:45.475Z,15.30
2019-06-10T04:35:16.228Z,15.20
2019-06-10T04:37:46.525Z,15.10
2019-06-10T04:40:18.440Z,15.10
2019-06-10T04:42:48.936Z,15.10
2019-06-10T04:45:19.212Z,15.00
2019-06-10T04:47:52.324Z,15.10
2019-06-10T04:50:30.763Z,15.20
2019-06-10T04:52:54.127Z,15.30
2019-06-10T04:55:26.181Z,15.40
2019-06-10T04:57:56.338Z,15.40
2019-06-10T05:00:27.628Z,15.50
2019-06-10T05:02:58.589Z,15.70
2019-06-10T05:05:29.943Z,15.70
2019-06-10T05:08:02.664Z,15.70
2019-06-10T05:10:33.339Z,15.70
2019-06-10T05:13:03.646Z,15.60
2019-06-10T05:15:34.933Z,15.60
2019-06-10T05:18:05.367Z,15.60
2019-06-10T05:20:51.209Z,15.70
2019-06-10T05:23:07.627Z,15.70
2019-06-10T05:25:37.938Z,15.70
2019-06-10T05:28:08.474Z,15.70
2019-06-10T05:30:38.737Z,15.70
2019-06-10T05:33:09.001Z,15.70
2019-06-10T05:35:39.303Z,15.60
2019-06-10T05:38:09.560Z,15.60
2019-06-10T05:40:39.858Z,15.60
2019-06-10T05:43:10.147Z,15.60
2019-06-10T05:45:42.433Z,15.60
2019-06-10T05:48:16.673Z,15.60
2019-06-10T05:50:59.033Z,15.70
2019-06-10T05:53:16.699Z,15.80
2019-06-10T05:55:47.031Z,15.80
2019-06-10T05:58:17.347Z,16.00
2019-06-10T06:00:48.500Z,16.10
2019-06-10T06:03:18.757Z,16.30
2019-06-10T06:05:49.011Z,16.30
2019-06-10T06:08:19.266Z,16.30
2019-06-10T06:10:49.721Z,16.40
2019-06-10T06:13:19.973Z,16.60
2019-06-10T06:15:52.708Z,16.70
2019-06-10T06:18:22.646Z,16.80
2019-06-10T06:20:53.025Z,16.90
2019-06-10T06:23:23.314Z,17.10
2019-06-10T06:25:53.574Z,17.20
2019-06-10T06:28:23.844Z,17.40
2019-06-10T06:30:54.122Z,17.60
2019-06-10T06:33:24.405Z,17.90
2019-06-10T06:35:54.675Z,18.30
2019-06-10T06:38:24.934Z,18.20
2019-06-10T06:40:55.217Z,18.10
2019-06-10T06:43:28.375Z,18.10
2019-06-10T06:45:57.424Z,18.30
2019-06-10T06:48:27.906Z,18.50
2019-06-10T06:51:04.508Z,18.70
2019-06-10T06:53:42.111Z,19.00
2019-06-10T06:56:03.938Z,19.30
2019-06-10T06:58:36.632Z,19.60
2019-06-10T07:01:10.768Z,19.80
2019-06-10T07:03:40.007Z,20.20
2019-06-10T07:06:13.047Z,20.60
2019-06-10T07:08:51.810Z,21.20
2019-06-10T07:11:14.742Z,21.40
2019-06-10T07:13:45.817Z,21.70
2019-06-10T07:16:16.411Z,21.60
2019-06-10T07:18:50.299Z,21.60
2019-06-10T07:21:18.658Z,21.40
2019-06-10T07:23:48.905Z,21.30
2019-06-10T07:26:19.229Z,21.30
2019-06-10T07:28:49.489Z,21.30
2019-06-10T07:31:24.853Z,21.80
2019-06-10T07:33:52.805Z,22.00
2019-06-10T07:36:23.696Z,22.10
2019-06-10T07:38:54.239Z,22.40
2019-06-10T07:41:24.474Z,22.80
2019-06-10T07:43:54.763Z,23.20
2019-06-10T07:46:25.013Z,23.30
2019-06-10T07:48:56.584Z,23.20
2019-06-10T07:51:27.003Z,22.80
2019-06-10T07:53:57.356Z,22.60
2019-06-10T07:56:30.604Z,22.50
2019-06-10T07:58:59.596Z,22.40
2019-06-10T08:01:29.857Z,22.50
2019-06-10T08:04:02.951Z,22.60
2019-06-10T08:06:34.410Z,22.80
2019-06-10T08:09:05.579Z,22.90
2019-06-10T08:11:37.101Z,22.70
2019-06-10T08:14:07.764Z,22.80
2019-06-10T08:16:38.013Z,23.10
2019-06-10T08:19:26.189Z,23.00
2019-06-10T08:21:41.476Z,23.10
2019-06-10T08:24:12.807Z,23.30
2019-06-10T08:26:45.520Z,23.70
2019-06-10T08:29:15.063Z,24.20
2019-06-10T08:31:48.417Z,24.60
2019-06-10T08:34:17.292Z,24.70
2019-06-10T08:36:50.544Z,24.80
2019-06-10T08:39:19.491Z,24.90
2019-06-10T08:41:49.841Z,25.00
2019-06-10T08:44:20.117Z,25.10
2019-06-10T08:46:52.417Z,25.30
2019-06-10T08:49:23.865Z,25.50
2019-06-10T08:51:54.439Z,25.90
2019-06-10T08:54:24.658Z,26.10
2019-06-10T08:56:54.908Z,26.10
2019-06-10T08:59:25.165Z,26.30
2019-06-10T09:01:57.051Z,26.50
2019-06-10T09:04:29.432Z,26.40
2019-06-10T09:06:59.382Z,26.30
2019-06-10T09:09:29.634Z,26.20
2019-06-10T09:11:59.886Z,26.30
2019-06-10T09:14:32.448Z,26.90
2019-06-10T09:17:03.379Z,27.40
2019-06-10T09:19:33.879Z,27.50
2019-06-10T09:22:04.124Z,27.50
2019-06-10T09:24:34.404Z,27.40
2019-06-10T09:27:04.700Z,27.40
2019-06-10T09:29:34.958Z,27.50
2019-06-10T09:32:05.614Z,27.70
2019-06-10T09:34:35.839Z,27.50
2019-06-10T09:37:06.093Z,27.10
2019-06-10T09:39:36.436Z,26.90
2019-06-10T09:42:06.974Z,27.00
2019-06-10T09:44:37.795Z,27.10
2019-06-10T09:47:08.070Z,27.40
2019-06-10T09:49:38.522Z,28.00
2019-06-10T09:52:08.800Z,28.10
2019-06-10T09:54:40.960Z,28.20
2019-06-10T09:57:12.700Z,28.30
2019-06-10T09:59:46.346Z,28.50
2019-06-10T10:02:15.007Z,28.30
2019-06-10T10:04:50.573Z,28.00
2019-06-10T10:07:17.230Z,28.00
2019-06-10T10:09:51.424Z,27.80
2019-06-10T10:12:19.498Z,27.70
2019-06-10T10:14:51.441Z,27.60
2019-06-10T10:17:23.125Z,27.70
2019-06-10T10:19:56.769Z,27.60
2019-06-10T10:22:25.556Z,27.70
2019-06-10T10:24:57.040Z,27.90
2019-06-10T10:27:28.103Z,28.10
2019-06-10T10:29:58.562Z,28.20
2019-06-10T10:32:28.816Z,28.30
2019-06-10T10:34:59.064Z,28.00
2019-06-10T10:37:29.343Z,27.90
2019-06-10T10:39:59.621Z,27.70
2019-06-10T10:42:42.677Z,27.30
2019-06-10T10:45:02.797Z,27.00
2019-06-10T10:47:33.651Z,27.00
2019-06-10T10:50:06.665Z,27.00
2019-06-10T10:52:36.905Z,26.90
2019-06-10T10:55:07.260Z,26.70
2019-06-10T10:57:37.508Z,26.60
2019-06-10T11:00:12.266Z,26.70
2019-06-10T11:02:43.128Z,27.00
2019-06-10T11:05:19.690Z,27.40
2019-06-10T11:07:53.088Z,27.90
2019-06-10T11:10:23.182Z,28.30
2019-06-10T11:12:55.384Z,28.50
2019-06-10T11:15:32.791Z,28.60
2019-06-10T11:18:03.881Z,28.80
2019-06-10T11:20:34.303Z,28.90
2019-06-10T11:23:04.651Z,29.00
2019-06-10T11:25:34.961Z,29.20
2019-06-10T11:28:06.520Z,29.60
2019-06-10T11:30:36.837Z,29.80
2019-06-10T11:33:07.402Z,29.90
2019-06-10T11:35:37.678Z,30.10
2019-06-10T11:38:07.956Z,30.30
2019-06-10T11:40:38.475Z,30.30
2019-06-10T11:43:08.752Z,30.30
2019-06-10T11:45:47.359Z,30.40
2019-06-10T11:48:12.930Z,30.70
2019-06-10T11:50:43.453Z,30.80
2019-06-10T11:53:14.082Z,30.80
2019-06-10T11:55:44.360Z,30.60
2019-06-10T11:58:14.618Z,30.80
2019-06-10T12:00:46.626Z,30.90
2019-06-10T12:03:16.883Z,31.20
2019-06-10T12:05:48.963Z,31.00
2019-06-10T12:08:19.323Z,30.40
2019-06-10T12:10:51.812Z,29.90
2019-06-10T12:13:22.712Z,29.60
2019-06-10T12:18:25.634Z,29.50
2019-06-10T12:20:59.444Z,29.80
2019-06-10T12:23:27.897Z,30.30
2019-06-10T12:25:59.425Z,30.40
2019-06-10T12:28:32.516Z,30.40
2019-06-10T12:31:06.600Z,30.20
2019-06-10T12:33:34.211Z,30.40
2019-06-10T12:36:07.162Z,30.60
2019-06-10T12:38:36.795Z,30.70
2019-06-10T12:41:10.171Z,30.50
2019-06-10T12:43:39.047Z,30.60
2019-06-10T12:46:09.294Z,30.70
2019-06-10T12:48:42.377Z,30.80
2019-06-10T12:51:13.628Z,31.00
2019-06-10T12:53:43.998Z,30.80
2019-06-10T12:56:15.131Z,30.80
2019-06-10T12:58:45.645Z,30.90
2019-06-10T13:01:16.459Z,31.00
2019-06-10T13:03:46.748Z,31.00
2019-06-10T13:06:17.021Z,31.10
2019-06-10T13:08:48.043Z,31.30
2019-06-10T13:11:18.330Z,31.70
2019-06-10T13:13:48.603Z,31.50
2019-06-10T13:16:18.855Z,31.50
2019-06-10T13:18:49.130Z,31.60
2019-06-10T13:21:19.464Z,31.70
2019-06-10T13:23:49.730Z,31.70
2019-06-10T13:26:19.971Z,31.80
2019-06-10T13:28:52.466Z,31.90
2019-06-10T13:31:23.542Z,32.30
2019-06-10T13:33:53.976Z,32.60
2019-06-10T13:36:26.205Z,32.40
2019-06-10T13:38:57.625Z,32.20
2019-06-10T13:41:27.940Z,31.90
2019-06-10T13:43:58.218Z,32.10
2019-06-10T13:46:28.502Z,32.80
2019-06-10T13:48:59.754Z,33.70
2019-06-10T13:51:32.357Z,34.10
2019-06-10T13:54:03.763Z,34.40
2019-06-10T13:56:46.172Z,33.80
2019-06-10T13:59:08.210Z,33.50
2019-06-10T14:01:39.126Z,34.00
2019-06-10T14:04:15.917Z,35.10
2019-06-10T14:06:49.781Z,35.20
2019-06-10T14:09:16.604Z,35.00
2019-06-10T14:11:45.395Z,34.80
2019-06-10T14:14:18.154Z,34.70
2019-06-10T14:16:47.628Z,34.30
2019-06-10T14:19:17.905Z,34.60
2019-06-10T14:21:48.182Z,34.90
2019-06-10T14:24:18.700Z,35.00
2019-06-10T14:26:48.984Z,35.10
2019-06-10T14:29:19.263Z,35.70
2019-06-10T14:31:53.010Z,36.40
2019-06-10T14:34:22.528Z,37.00
2019-06-10T14:36:52.965Z,36.90
2019-06-10T14:39:23.246Z,36.70
2019-06-10T14:41:53.493Z,36.30
2019-06-10T14:44:23.748Z,35.20
2019-06-10T14:46:54.000Z,34.50
2019-06-10T14:49:24.252Z,34.20
2019-06-10T14:51:54.536Z,34.10
2019-06-10T14:54:24.842Z,33.70
2019-06-10T14:56:57.422Z,33.30
2019-06-10T14:59:27.159Z,33.20
2019-06-10T15:01:57.442Z,33.50
2019-06-10T15:04:27.685Z,34.00
2019-06-10T15:06:57.956Z,34.80
2019-06-10T15:09:28.241Z,34.90
2019-06-10T15:11:58.482Z,34.80
2019-06-10T15:14:28.759Z,34.90
2019-06-10T15:16:59.014Z,35.50
2019-06-10T15:19:29.360Z,36.80
2019-06-10T15:21:59.612Z,38.80
2019-06-10T15:24:30.223Z,40.50
2019-06-10T15:27:14.289Z,41.20
2019-06-10T15:29:42.736Z,42.00
2019-06-10T15:32:22.838Z,42.60
2019-06-10T15:34:47.770Z,43.00
2019-06-10T15:37:19.365Z,43.60
2019-06-10T15:39:52.807Z,44.20
2019-06-10T15:42:23.139Z,44.10
2019-06-10T15:44:55.928Z,43.70
2019-06-10T15:47:26.563Z,43.20
2019-06-10T15:49:57.022Z,42.00
2019-06-10T15:52:27.275Z,41.40
2019-06-10T15:54:58.132Z,41.60
2019-06-10T15:57:39.577Z,42.20
2019-06-10T16:00:04.230Z,42.60
2019-06-10T16:02:34.178Z,42.30
2019-06-10T16:05:06.054Z,40.00
2019-06-10T16:07:36.305Z,38.60
2019-06-10T16:10:07.928Z,38.40
2019-06-10T16:12:38.215Z,39.30
2019-06-10T16:15:08.936Z,40.60
2019-06-10T16:17:39.191Z,40.10
2019-06-10T16:20:09.437Z,38.60
2019-06-10T16:22:39.723Z,37.00
2019-06-10T16:25:12.544Z,35.60
2019-06-10T16:27:48.580Z,34.30
2019-06-10T16:30:14.686Z,33.60
2019-06-10T16:32:46.517Z,33.40
2019-06-10T16:35:16.917Z,33.90
2019-06-10T16:37:47.172Z,35.40
2019-06-10T16:40:24.253Z,38.10
2019-06-10T16:42:54.288Z,40.20
2019-06-10T16:45:29.050Z,41.50
2019-06-10T16:47:56.861Z,41.60
2019-06-10T16:50:27.525Z,41.90
2019-06-10T16:52:58.481Z,42.70
2019-06-10T16:55:28.795Z,42.60
2019-06-10T16:57:59.836Z,42.40
2019-06-10T17:00:31.539Z,41.90
2019-06-10T17:03:02.446Z,42.50
2019-06-10T17:05:33.181Z,42.10
2019-06-10T17:08:03.567Z,41.90
2019-06-10T17:10:34.538Z,41.40
2019-06-10T17:13:12.954Z,40.90
2019-06-10T17:15:43.232Z,40.90
2019-06-10T17:18:13.581Z,40.50
2019-06-10T17:20:43.857Z,40.20
2019-06-10T17:23:24.636Z,40.70
2019-06-10T17:25:55.618Z,40.50
2019-06-10T17:28:30.770Z,40.20
2019-06-10T17:30:58.952Z,40.30
2019-06-10T17:33:30.397Z,40.20
2019-06-10T17:36:03.442Z,39.50
2019-06-10T17:38:33.266Z,39.00
2019-06-10T17:41:03.582Z,37.90
2019-06-10T17:43:34.519Z,37.00
2019-06-10T17:46:05.003Z,36.30
2019-06-10T17:48:35.321Z,35.50
2019-06-10T17:51:05.597Z,34.50
2019-06-10T17:53:36.210Z,33.60
2019-06-10T17:56:06.466Z,32.40
2019-06-10T17:58:50.092Z,31.30
2019-06-10T18:01:08.687Z,30.90
2019-06-10T18:03:40.028Z,30.70
2019-06-10T18:06:13.129Z,30.40
2019-06-10T18:08:42.499Z,30.60
2019-06-10T18:11:13.101Z,30.40
2019-06-10T18:13:43.382Z,29.60
2019-06-10T18:16:13.666Z,28.80
2019-06-10T18:18:43.944Z,28.20
2019-06-10T18:21:14.182Z,27.60
2019-06-10T18:23:44.460Z,27.00
2019-06-10T18:26:14.750Z,26.80
2019-06-10T18:29:00.891Z,26.60
2019-06-10T18:31:18.623Z,26.40
2019-06-10T18:33:49.159Z,26.20
2019-06-10T18:36:19.402Z,26.10
2019-06-10T18:38:49.679Z,26.00
2019-06-10T18:41:22.170Z,25.90
2019-06-10T18:43:51.921Z,25.90
2019-06-10T18:46:23.168Z,25.80
2019-06-10T18:48:53.788Z,25.70
2019-06-10T18:51:24.131Z,25.60
2019-06-10T18:53:54.762Z,25.50
2019-06-10T18:56:25.014Z,25.40
2019-06-10T18:58:55.331Z,25.20
2019-06-10T19:01:25.682Z,25.00
2019-06-10T19:03:55.930Z,24.80
2019-06-10T19:06:26.195Z,24.70
2019-06-10T19:08:57.447Z,24.50
2019-06-10T19:11:29.394Z,24.40
2019-06-10T19:14:00.114Z,24.20
2019-06-10T19:16:32.631Z,24.00
2019-06-10T19:19:02.830Z,23.80
2019-06-10T19:21:34.228Z,23.70
2019-06-10T19:24:04.754Z,23.60
2019-06-10T19:26:37.342Z,23.50
2019-06-10T19:29:07.025Z,23.30
2019-06-10T19:31:39.341Z,23.10
2019-06-10T19:34:09.869Z,23.00
2019-06-10T19:36:40.161Z,22.90
2019-06-10T19:39:12.966Z,22.90
2019-06-10T19:41:47.011Z,22.80
2019-06-10T19:44:14.656Z,22.80
2019-06-10T19:46:44.963Z,22.70
2019-06-10T19:49:15.630Z,22.60
2019-06-10T19:51:46.883Z,22.60
2019-06-10T19:54:17.307Z,22.60
2019-06-10T19:56:47.574Z,22.60
2019-06-10T19:59:17.863Z,22.50
2019-06-10T20:01:48.955Z,22.40
2019-06-10T20:04:19.322Z,22.50
2019-06-10T20:06:50.848Z,22.40
2019-06-10T20:09:22.645Z,22.30
2019-06-10T20:11:53.228Z,22.30
2019-06-10T20:14:23.491Z,22.30
2019-06-10T20:16:53.763Z,22.30
2019-06-10T20:19:24.036Z,22.30
2019-06-10T20:21:54.293Z,22.20
2019-06-10T20:24:24.607Z,22.20
2019-06-10T20:26:54.882Z,22.20
2019-06-10T20:29:25.172Z,22.20
2019-06-10T20:31:55.431Z,22.20
2019-06-10T20:34:26.072Z,22.20
2019-06-10T20:36:56.322Z,22.20
2019-06-10T20:39:29.536Z,22.20
2019-06-10T20:41:59.334Z,22.10
2019-06-10T20:44:29.627Z,22.10
2019-06-10T20:46:59.982Z,22.00
2019-06-10T20:49:32.493Z,22.00
2019-06-10T20:52:10.748Z,22.00
2019-06-10T20:54:34.620Z,22.10
2019-06-10T20:57:04.893Z,22.00
2019-06-10T20:59:35.185Z,22.00
2019-06-10T21:02:05.445Z,22.10
2019-06-10T21:04:35.735Z,22.10
2019-06-10T21:07:05.986Z,22.00
2019-06-10T21:09:36.295Z,22.00
2019-06-10T21:12:06.530Z,22.00
2019-06-10T21:14:36.788Z,22.00
2019-06-10T21:17:07.078Z,21.90
2019-06-10T21:19:37.595Z,21.90
2019-06-10T21:22:07.887Z,21.90
2019-06-10T21:24:38.143Z,21.90
2019-06-10T21:27:08.512Z,21.90
2019-06-10T21:29:38.801Z,21.90
2019-06-10T21:32:09.302Z,21.80
2019-06-10T21:34:43.410Z,21.80
2019-06-10T21:37:12.493Z,21.70
2019-06-10T21:39:44.878Z,21.70
2019-06-10T21:42:14.759Z,21.70
2019-06-10T21:44:45.876Z,21.70
2019-06-10T21:47:16.233Z,21.60
2019-06-10T21:49:48.337Z,21.60
2019-06-10T21:52:18.643Z,21.50
2019-06-10T21:54:48.907Z,21.50
2019-06-10T21:57:22.098Z,21.50
2019-06-10T21:59:54.022Z,21.40
2019-06-10T22:02:24.481Z,21.40
2019-06-10T22:04:55.594Z,21.40
2019-06-10T22:07:25.883Z,21.30
2019-06-10T22:09:56.292Z,21.30
2019-06-10T22:12:26.536Z,21.20
2019-06-10T22:14:57.484Z,21.20
2019-06-10T22:17:27.750Z,21.20
2019-06-10T22:19:58.003Z,21.20
2019-06-10T22:22:28.293Z,21.20
2019-06-10T22:24:59.475Z,21.20
2019-06-10T22:27:29.777Z,21.20
2019-06-10T22:30:02.697Z,21.20
2019-06-10T22:32:32.355Z,21.20
2019-06-10T22:35:03.082Z,21.10
2019-06-10T22:37:33.831Z,21.10
2019-06-10T22:40:06.095Z,21.00
2019-06-10T22:42:36.459Z,21.00
2019-06-10T22:45:07.926Z,21.00
2019-06-10T22:47:38.221Z,21.00
2019-06-10T22:50:08.841Z,21.00
2019-06-10T22:52:39.097Z,20.90
2019-06-10T22:55:09.873Z,20.90
2019-06-10T22:57:43.754Z,20.90
2019-06-10T23:00:13.078Z,20.90
2019-06-10T23:02:43.937Z,20.90
2019-06-10T23:05:17.211Z,20.90
2019-06-10T23:07:46.281Z,20.80
2019-06-10T23:10:18.176Z,20.80
2019-06-10T23:12:48.623Z,20.70
2019-06-10T23:15:19.685Z,20.70
2019-06-10T23:17:51.582Z,20.50
2019-06-10T23:20:21.959Z,20.40
2019-06-10T23:22:55.287Z,20.20
2019-06-10T23:25:25.068Z,20.10
2019-06-10T23:27:57.650Z,20.00
2019-06-10T23:30:27.385Z,19.80
2019-06-10T23:32:59.282Z,19.70
2019-06-10T23:35:32.172Z,19.60
2019-06-10T23:38:04.930Z,19.50
2019-06-10T23:40:33.822Z,19.40
2019-06-10T23:43:04.107Z,19.30
2019-06-10T23:45:34.355Z,19.30
2019-06-10T23:48:05.183Z,19.20
2019-06-10T23:50:36.217Z,19.20
2019-06-10T23:53:07.755Z,19.20
2019-06-10T23:55:38.367Z,19.20
2019-06-10T23:58:08.614Z,19.20
